sensor_id;sensor_type;location;lat;lon;timestamp;temperature;humidity
51801;DHT22;37855;53.204;6.568;2023-07-02T00:00:05;16.50;64.50
51801;DHT22;37855;53.204;6.568;2023-07-02T00:02:32;16.50;64.50
51801;DHT22;37855;53.204;6.568;2023-07-02T00:04:58;16.40;64.60
51801;DHT22;37855;53.204;6.568;2023-07-02T00:07:23;16.40;64.60
51801;DHT22;37855;53.204;6.568;2023-07-02T00:09:53;16.40;64.80
51801;DHT22;37855;53.204;6.568;2023-07-02T00:12:18;16.30;64.80
51801;DHT22;37855;53.204;6.568;2023-07-02T00:14:44;16.30;64.90
51801;DHT22;37855;53.204;6.568;2023-07-02T00:17:10;16.30;65.10
51801;DHT22;37855;53.204;6.568;2023-07-02T00:19:40;16.20;65.20
51801;DHT22;37855;53.204;6.568;2023-07-02T00:22:08;16.30;65.20
51801;DHT22;37855;53.204;6.568;2023-07-02T00:24:35;16.20;65.30
51801;DHT22;37855;53.204;6.568;2023-07-02T00:27:01;16.10;65.50
51801;DHT22;37855;53.204;6.568;2023-07-02T00:29:27;16.10;65.60
51801;DHT22;37855;53.204;6.568;2023-07-02T00:31:52;16.10;65.70
51801;DHT22;37855;53.204;6.568;2023-07-02T00:34:18;16.00;65.80
51801;DHT22;37855;53.204;6.568;2023-07-02T00:36:44;16.00;65.70
51801;DHT22;37855;53.204;6.568;2023-07-02T00:39:10;16.00;65.80
51801;DHT22;37855;53.204;6.568;2023-07-02T00:41:39;15.90;65.80
51801;DHT22;37855;53.204;6.568;2023-07-02T00:44:07;16.00;65.80
51801;DHT22;37855;53.204;6.568;2023-07-02T00:46:34;15.90;65.80
51801;DHT22;37855;53.204;6.568;2023-07-02T00:49:01;15.90;65.70
51801;DHT22;37855;53.204;6.568;2023-07-02T00:51:29;15.90;65.80
51801;DHT22;37855;53.204;6.568;2023-07-02T00:53:56;15.90;65.80
51801;DHT22;37855;53.204;6.568;2023-07-02T00:56:23;15.90;65.80
51801;DHT22;37855;53.204;6.568;2023-07-02T00:58:51;15.90;65.90
51801;DHT22;37855;53.204;6.568;2023-07-02T01:03:56;15.80;65.70
51801;DHT22;37855;53.204;6.568;2023-07-02T01:06:31;15.80;65.80
51801;DHT22;37855;53.204;6.568;2023-07-02T01:09:02;15.80;65.80
51801;DHT22;37855;53.204;6.568;2023-07-02T01:11:32;15.80;65.90
51801;DHT22;37855;53.204;6.568;2023-07-02T01:14:10;15.80;66.00
51801;DHT22;37855;53.204;6.568;2023-07-02T01:16:37;15.70;66.10
51801;DHT22;37855;53.204;6.568;2023-07-02T01:19:11;15.70;66.20
51801;DHT22;37855;53.204;6.568;2023-07-02T01:21:38;15.70;66.30
51801;DHT22;37855;53.204;6.568;2023-07-02T01:24:05;15.60;66.40
51801;DHT22;37855;53.204;6.568;2023-07-02T01:26:32;15.60;66.50
51801;DHT22;37855;53.204;6.568;2023-07-02T01:29:16;15.60;66.70
51801;DHT22;37855;53.204;6.568;2023-07-02T01:31:42;15.60;66.60
51801;DHT22;37855;53.204;6.568;2023-07-02T01:34:08;15.60;66.70
51801;DHT22;37855;53.204;6.568;2023-07-02T01:36:37;15.60;66.80
51801;DHT22;37855;53.204;6.568;2023-07-02T01:39:07;15.50;66.80
51801;DHT22;37855;53.204;6.568;2023-07-02T01:42:23;15.50;66.90
51801;DHT22;37855;53.204;6.568;2023-07-02T01:44:33;15.50;66.90
51801;DHT22;37855;53.204;6.568;2023-07-02T01:47:12;15.50;67.00
51801;DHT22;37855;53.204;6.568;2023-07-02T01:49:37;15.50;66.90
51801;DHT22;37855;53.204;6.568;2023-07-02T01:52:04;15.50;67.10
51801;DHT22;37855;53.204;6.568;2023-07-02T01:54:31;15.40;67.10
51801;DHT22;37855;53.204;6.568;2023-07-02T01:56:59;15.40;67.20
51801;DHT22;37855;53.204;6.568;2023-07-02T01:59:26;15.40;67.30
51801;DHT22;37855;53.204;6.568;2023-07-02T02:01:52;15.30;67.40
51801;DHT22;37855;53.204;6.568;2023-07-02T02:04:18;15.30;67.50
51801;DHT22;37855;53.204;6.568;2023-07-02T02:06:44;15.30;67.70
51801;DHT22;37855;53.204;6.568;2023-07-02T02:09:10;15.30;67.70
51801;DHT22;37855;53.204;6.568;2023-07-02T02:11:39;15.30;67.70
51801;DHT22;37855;53.204;6.568;2023-07-02T02:14:05;15.20;67.70
51801;DHT22;37855;53.204;6.568;2023-07-02T02:16:31;15.20;67.80
51801;DHT22;37855;53.204;6.568;2023-07-02T02:18:59;15.20;67.80
51801;DHT22;37855;53.204;6.568;2023-07-02T02:21:29;15.10;67.90
51801;DHT22;37855;53.204;6.568;2023-07-02T02:23:55;15.10;67.90
51801;DHT22;37855;53.204;6.568;2023-07-02T02:26:21;15.10;68.00
51801;DHT22;37855;53.204;6.568;2023-07-02T02:28:48;15.10;67.90
51801;DHT22;37855;53.204;6.568;2023-07-02T02:31:14;15.10;67.90
51801;DHT22;37855;53.204;6.568;2023-07-02T02:33:40;15.10;68.00
51801;DHT22;37855;53.204;6.568;2023-07-02T02:36:06;15.00;67.90
51801;DHT22;37855;53.204;6.568;2023-07-02T02:38:33;15.00;67.90
51801;DHT22;37855;53.204;6.568;2023-07-02T02:41:14;14.90;68.20
51801;DHT22;37855;53.204;6.568;2023-07-02T02:43:43;14.90;68.20
51801;DHT22;37855;53.204;6.568;2023-07-02T02:46:12;14.80;68.40
51801;DHT22;37855;53.204;6.568;2023-07-02T02:48:38;14.80;68.50
51801;DHT22;37855;53.204;6.568;2023-07-02T02:51:07;14.80;68.50
51801;DHT22;37855;53.204;6.568;2023-07-02T02:53:32;14.70;68.50
51801;DHT22;37855;53.204;6.568;2023-07-02T02:55:58;14.70;68.70
51801;DHT22;37855;53.204;6.568;2023-07-02T02:58:24;14.70;68.80
51801;DHT22;37855;53.204;6.568;2023-07-02T03:00:49;14.70;68.70
51801;DHT22;37855;53.204;6.568;2023-07-02T03:03:16;14.70;68.90
51801;DHT22;37855;53.204;6.568;2023-07-02T03:05:42;14.60;69.10
51801;DHT22;37855;53.204;6.568;2023-07-02T03:08:09;14.70;69.10
51801;DHT22;37855;53.204;6.568;2023-07-02T03:10:35;14.60;69.30
51801;DHT22;37855;53.204;6.568;2023-07-02T03:13:01;14.60;69.20
51801;DHT22;37855;53.204;6.568;2023-07-02T03:15:26;14.60;69.30
51801;DHT22;37855;53.204;6.568;2023-07-02T03:17:53;14.60;69.40
51801;DHT22;37855;53.204;6.568;2023-07-02T03:20:19;14.60;69.50
51801;DHT22;37855;53.204;6.568;2023-07-02T03:22:46;14.60;69.40
51801;DHT22;37855;53.204;6.568;2023-07-02T03:25:12;14.60;69.50
51801;DHT22;37855;53.204;6.568;2023-07-02T03:27:38;14.50;69.60
51801;DHT22;37855;53.204;6.568;2023-07-02T03:30:04;14.50;69.60
51801;DHT22;37855;53.204;6.568;2023-07-02T03:32:30;14.50;69.80
51801;DHT22;37855;53.204;6.568;2023-07-02T03:34:56;14.50;69.90
51801;DHT22;37855;53.204;6.568;2023-07-02T03:37:22;14.50;69.80
51801;DHT22;37855;53.204;6.568;2023-07-02T03:39:47;14.50;69.80
51801;DHT22;37855;53.204;6.568;2023-07-02T03:42:13;14.60;69.70
51801;DHT22;37855;53.204;6.568;2023-07-02T03:44:39;14.60;69.60
51801;DHT22;37855;53.204;6.568;2023-07-02T03:47:06;14.60;69.50
51801;DHT22;37855;53.204;6.568;2023-07-02T03:49:33;14.60;69.50
51801;DHT22;37855;53.204;6.568;2023-07-02T03:52:00;14.70;69.50
51801;DHT22;37855;53.204;6.568;2023-07-02T03:54:26;14.70;69.50
51801;DHT22;37855;53.204;6.568;2023-07-02T03:56:51;14.80;69.40
51801;DHT22;37855;53.204;6.568;2023-07-02T03:59:18;15.00;69.10
51801;DHT22;37855;53.204;6.568;2023-07-02T04:01:47;15.10;68.70
51801;DHT22;37855;53.204;6.568;2023-07-02T04:04:13;15.20;68.50
51801;DHT22;37855;53.204;6.568;2023-07-02T04:06:42;15.20;68.60
51801;DHT22;37855;53.204;6.568;2023-07-02T04:09:07;15.10;68.50
51801;DHT22;37855;53.204;6.568;2023-07-02T04:11:33;15.10;68.60
51801;DHT22;37855;53.204;6.568;2023-07-02T04:14:00;15.10;68.50
51801;DHT22;37855;53.204;6.568;2023-07-02T04:16:26;15.10;68.70
51801;DHT22;37855;53.204;6.568;2023-07-02T04:18:53;15.00;68.90
51801;DHT22;37855;53.204;6.568;2023-07-02T04:21:18;15.00;68.80
51801;DHT22;37855;53.204;6.568;2023-07-02T04:23:44;15.00;68.70
51801;DHT22;37855;53.204;6.568;2023-07-02T04:26:10;15.00;68.80
51801;DHT22;37855;53.204;6.568;2023-07-02T04:28:35;15.00;68.70
51801;DHT22;37855;53.204;6.568;2023-07-02T04:31:04;15.00;68.80
51801;DHT22;37855;53.204;6.568;2023-07-02T04:33:31;15.00;68.70
51801;DHT22;37855;53.204;6.568;2023-07-02T04:36:02;15.00;68.70
51801;DHT22;37855;53.204;6.568;2023-07-02T04:38:28;15.10;68.70
51801;DHT22;37855;53.204;6.568;2023-07-02T04:40:54;15.10;68.70
51801;DHT22;37855;53.204;6.568;2023-07-02T04:43:23;15.10;68.80
51801;DHT22;37855;53.204;6.568;2023-07-02T04:45:50;15.10;68.70
51801;DHT22;37855;53.204;6.568;2023-07-02T04:48:16;15.10;68.80
51801;DHT22;37855;53.204;6.568;2023-07-02T04:50:42;15.10;68.80
51801;DHT22;37855;53.204;6.568;2023-07-02T04:53:07;15.10;68.90
51801;DHT22;37855;53.204;6.568;2023-07-02T04:55:33;15.20;68.80
51801;DHT22;37855;53.204;6.568;2023-07-02T04:57:58;15.20;68.80
51801;DHT22;37855;53.204;6.568;2023-07-02T05:00:24;15.20;68.60
51801;DHT22;37855;53.204;6.568;2023-07-02T05:02:50;15.30;68.50
51801;DHT22;37855;53.204;6.568;2023-07-02T05:05:16;15.30;68.20
51801;DHT22;37855;53.204;6.568;2023-07-02T05:07:42;15.40;67.70
51801;DHT22;37855;53.204;6.568;2023-07-02T05:10:08;15.50;67.30
51801;DHT22;37855;53.204;6.568;2023-07-02T05:12:35;15.60;67.00
51801;DHT22;37855;53.204;6.568;2023-07-02T05:15:03;15.70;66.50
51801;DHT22;37855;53.204;6.568;2023-07-02T05:17:29;15.80;65.70
51801;DHT22;37855;53.204;6.568;2023-07-02T05:19:56;15.80;65.40
51801;DHT22;37855;53.204;6.568;2023-07-02T05:22:21;15.90;64.90
51801;DHT22;37855;53.204;6.568;2023-07-02T05:24:47;15.90;64.50
51801;DHT22;37855;53.204;6.568;2023-07-02T05:27:13;15.90;64.20
51801;DHT22;37855;53.204;6.568;2023-07-02T05:29:38;15.90;64.20
51801;DHT22;37855;53.204;6.568;2023-07-02T05:32:04;15.90;63.40
51801;DHT22;37855;53.204;6.568;2023-07-02T05:34:30;15.90;63.40
51801;DHT22;37855;53.204;6.568;2023-07-02T05:36:58;15.90;63.20
51801;DHT22;37855;53.204;6.568;2023-07-02T05:39:25;15.90;63.30
51801;DHT22;37855;53.204;6.568;2023-07-02T05:41:54;15.90;63.50
51801;DHT22;37855;53.204;6.568;2023-07-02T05:44:19;15.90;63.50
51801;DHT22;37855;53.204;6.568;2023-07-02T05:46:45;15.90;63.60
51801;DHT22;37855;53.204;6.568;2023-07-02T05:49:12;16.00;63.60
51801;DHT22;37855;53.204;6.568;2023-07-02T05:51:37;16.10;63.50
51801;DHT22;37855;53.204;6.568;2023-07-02T05:54:03;16.20;63.30
51801;DHT22;37855;53.204;6.568;2023-07-02T05:56:29;16.30;63.00
51801;DHT22;37855;53.204;6.568;2023-07-02T05:58:54;16.30;62.50
51801;DHT22;37855;53.204;6.568;2023-07-02T06:01:20;16.30;62.60
51801;DHT22;37855;53.204;6.568;2023-07-02T06:03:49;16.40;62.60
51801;DHT22;37855;53.204;6.568;2023-07-02T06:06:18;16.50;62.60
51801;DHT22;37855;53.204;6.568;2023-07-02T06:08:44;16.50;62.60
51801;DHT22;37855;53.204;6.568;2023-07-02T06:11:10;16.50;62.70
51801;DHT22;37855;53.204;6.568;2023-07-02T06:13:36;16.60;62.60
51801;DHT22;37855;53.204;6.568;2023-07-02T06:16:01;16.60;62.60
51801;DHT22;37855;53.204;6.568;2023-07-02T06:18:27;16.70;62.60
51801;DHT22;37855;53.204;6.568;2023-07-02T06:20:53;16.70;62.40
51801;DHT22;37855;53.204;6.568;2023-07-02T06:23:19;16.70;61.90
51801;DHT22;37855;53.204;6.568;2023-07-02T06:25:46;16.70;62.40
51801;DHT22;37855;53.204;6.568;2023-07-02T06:28:12;16.70;62.70
51801;DHT22;37855;53.204;6.568;2023-07-02T06:30:38;16.80;62.70
51801;DHT22;37855;53.204;6.568;2023-07-02T06:33:06;16.80;62.60
51801;DHT22;37855;53.204;6.568;2023-07-02T06:35:31;16.80;62.60
51801;DHT22;37855;53.204;6.568;2023-07-02T06:38:00;17.00;62.60
51801;DHT22;37855;53.204;6.568;2023-07-02T06:40:25;17.00;62.40
51801;DHT22;37855;53.204;6.568;2023-07-02T06:42:51;17.00;62.00
51801;DHT22;37855;53.204;6.568;2023-07-02T06:45:17;17.10;61.60
51801;DHT22;37855;53.204;6.568;2023-07-02T06:47:43;17.10;61.30
51801;DHT22;37855;53.204;6.568;2023-07-02T06:50:10;17.00;61.30
51801;DHT22;37855;53.204;6.568;2023-07-02T06:52:36;17.00;60.60
51801;DHT22;37855;53.204;6.568;2023-07-02T06:55:03;16.90;60.00
51801;DHT22;37855;53.204;6.568;2023-07-02T06:57:29;16.80;59.50
51801;DHT22;37855;53.204;6.568;2023-07-02T06:59:58;16.80;59.30
51801;DHT22;37855;53.204;6.568;2023-07-02T07:02:25;16.90;59.50
51801;DHT22;37855;53.204;6.568;2023-07-02T07:04:51;17.00;59.70
51801;DHT22;37855;53.204;6.568;2023-07-02T07:07:17;17.10;59.30
51801;DHT22;37855;53.204;6.568;2023-07-02T07:09:44;17.20;59.30
51801;DHT22;37855;53.204;6.568;2023-07-02T07:12:09;17.20;58.70
51801;DHT22;37855;53.204;6.568;2023-07-02T07:14:35;17.10;59.10
51801;DHT22;37855;53.204;6.568;2023-07-02T07:17:04;17.20;58.20
51801;DHT22;37855;53.204;6.568;2023-07-02T07:19:29;17.20;57.80
51801;DHT22;37855;53.204;6.568;2023-07-02T07:21:55;17.20;57.60
51801;DHT22;37855;53.204;6.568;2023-07-02T07:24:21;17.20;57.20
51801;DHT22;37855;53.204;6.568;2023-07-02T07:26:46;17.20;56.90
51801;DHT22;37855;53.204;6.568;2023-07-02T07:29:12;17.30;56.70
51801;DHT22;37855;53.204;6.568;2023-07-02T07:31:39;17.30;57.20
51801;DHT22;37855;53.204;6.568;2023-07-02T07:34:06;17.40;56.80
51801;DHT22;37855;53.204;6.568;2023-07-02T07:36:32;17.60;57.00
51801;DHT22;37855;53.204;6.568;2023-07-02T07:38:57;17.70;56.50
51801;DHT22;37855;53.204;6.568;2023-07-02T07:41:23;17.70;56.40
51801;DHT22;37855;53.204;6.568;2023-07-02T07:43:49;17.60;56.20
51801;DHT22;37855;53.204;6.568;2023-07-02T07:46:14;17.50;56.70
51801;DHT22;37855;53.204;6.568;2023-07-02T07:48:40;17.50;56.60
51801;DHT22;37855;53.204;6.568;2023-07-02T07:51:06;17.60;56.10
51801;DHT22;37855;53.204;6.568;2023-07-02T07:53:31;17.60;56.00
51801;DHT22;37855;53.204;6.568;2023-07-02T07:55:57;17.70;55.80
51801;DHT22;37855;53.204;6.568;2023-07-02T07:58:23;17.80;55.50
51801;DHT22;37855;53.204;6.568;2023-07-02T08:00:49;17.80;55.40
51801;DHT22;37855;53.204;6.568;2023-07-02T08:03:15;17.90;55.60
51801;DHT22;37855;53.204;6.568;2023-07-02T08:05:41;17.90;55.50
51801;DHT22;37855;53.204;6.568;2023-07-02T08:08:10;18.00;55.20
51801;DHT22;37855;53.204;6.568;2023-07-02T08:10:35;18.20;55.10
51801;DHT22;37855;53.204;6.568;2023-07-02T08:13:01;18.30;55.30
51801;DHT22;37855;53.204;6.568;2023-07-02T08:15:27;18.30;55.60
51801;DHT22;37855;53.204;6.568;2023-07-02T08:17:53;18.20;55.70
51801;DHT22;37855;53.204;6.568;2023-07-02T08:20:23;18.10;55.90
51801;DHT22;37855;53.204;6.568;2023-07-02T08:22:52;18.00;56.10
51801;DHT22;37855;53.204;6.568;2023-07-02T08:25:18;17.90;56.00
51801;DHT22;37855;53.204;6.568;2023-07-02T08:27:45;17.80;56.20
51801;DHT22;37855;53.204;6.568;2023-07-02T08:30:11;17.70;56.50
51801;DHT22;37855;53.204;6.568;2023-07-02T08:32:36;17.50;57.00
51801;DHT22;37855;53.204;6.568;2023-07-02T08:35:02;17.50;57.40
51801;DHT22;37855;53.204;6.568;2023-07-02T08:37:28;17.40;58.30
51801;DHT22;37855;53.204;6.568;2023-07-02T08:39:54;17.10;59.20
51801;DHT22;37855;53.204;6.568;2023-07-02T08:42:20;16.90;60.10
51801;DHT22;37855;53.204;6.568;2023-07-02T08:44:46;16.90;60.70
51801;DHT22;37855;53.204;6.568;2023-07-02T08:47:13;16.80;61.20
51801;DHT22;37855;53.204;6.568;2023-07-02T08:49:39;16.80;61.60
51801;DHT22;37855;53.204;6.568;2023-07-02T08:52:05;17.00;61.50
51801;DHT22;37855;53.204;6.568;2023-07-02T08:54:31;17.20;61.10
51801;DHT22;37855;53.204;6.568;2023-07-02T08:56:57;17.40;59.60
51801;DHT22;37855;53.204;6.568;2023-07-02T08:59:23;17.50;58.60
51801;DHT22;37855;53.204;6.568;2023-07-02T09:01:50;17.60;58.00
51801;DHT22;37855;53.204;6.568;2023-07-02T09:04:20;17.70;57.70
51801;DHT22;37855;53.204;6.568;2023-07-02T09:06:47;17.70;57.80
51801;DHT22;37855;53.204;6.568;2023-07-02T09:09:13;17.80;58.00
51801;DHT22;37855;53.204;6.568;2023-07-02T09:11:49;17.90;58.10
51801;DHT22;37855;53.204;6.568;2023-07-02T09:14:26;17.90;57.70
51801;DHT22;37855;53.204;6.568;2023-07-02T09:17:06;18.10;56.40
51801;DHT22;37855;53.204;6.568;2023-07-02T09:19:32;18.30;56.40
51801;DHT22;37855;53.204;6.568;2023-07-02T09:21:59;18.50;56.20
51801;DHT22;37855;53.204;6.568;2023-07-02T09:24:26;18.60;55.90
51801;DHT22;37855;53.204;6.568;2023-07-02T09:26:54;18.70;55.80
51801;DHT22;37855;53.204;6.568;2023-07-02T09:29:33;18.70;54.90
51801;DHT22;37855;53.204;6.568;2023-07-02T09:32:04;18.90;54.80
51801;DHT22;37855;53.204;6.568;2023-07-02T09:34:35;19.00;54.80
51801;DHT22;37855;53.204;6.568;2023-07-02T09:37:02;19.20;54.30
51801;DHT22;37855;53.204;6.568;2023-07-02T09:39:30;19.30;52.80
51801;DHT22;37855;53.204;6.568;2023-07-02T09:41:57;19.30;52.60
51801;DHT22;37855;53.204;6.568;2023-07-02T09:44:31;19.50;52.30
51801;DHT22;37855;53.204;6.568;2023-07-02T09:49:27;19.50;52.30
51801;DHT22;37855;53.204;6.568;2023-07-02T09:51:56;19.40;51.90
51801;DHT22;37855;53.204;6.568;2023-07-02T09:54:24;19.30;52.70
51801;DHT22;37855;53.204;6.568;2023-07-02T09:56:50;19.30;52.70
51801;DHT22;37855;53.204;6.568;2023-07-02T09:59:15;19.40;52.90
51801;DHT22;37855;53.204;6.568;2023-07-02T10:01:41;19.40;52.70
51801;DHT22;37855;53.204;6.568;2023-07-02T10:04:14;19.60;51.80
51801;DHT22;37855;53.204;6.568;2023-07-02T10:06:58;19.70;50.40
51801;DHT22;37855;53.204;6.568;2023-07-02T10:09:55;19.60;50.60
51801;DHT22;37855;53.204;6.568;2023-07-02T10:12:25;19.50;51.20
51801;DHT22;37855;53.204;6.568;2023-07-02T10:14:53;19.50;51.80
51801;DHT22;37855;53.204;6.568;2023-07-02T10:17:32;19.40;51.90
51801;DHT22;37855;53.204;6.568;2023-07-02T10:20:00;19.40;52.10
51801;DHT22;37855;53.204;6.568;2023-07-02T10:22:27;19.40;52.40
51801;DHT22;37855;53.204;6.568;2023-07-02T10:24:59;19.40;52.10
51801;DHT22;37855;53.204;6.568;2023-07-02T10:27:35;19.40;51.30
51801;DHT22;37855;53.204;6.568;2023-07-02T10:30:03;19.50;50.10
51801;DHT22;37855;53.204;6.568;2023-07-02T10:32:29;19.60;49.20
51801;DHT22;37855;53.204;6.568;2023-07-02T10:34:55;19.40;49.50
51801;DHT22;37855;53.204;6.568;2023-07-02T10:37:21;19.30;50.80
51801;DHT22;37855;53.204;6.568;2023-07-02T10:39:47;19.10;51.80
51801;DHT22;37855;53.204;6.568;2023-07-02T10:42:13;19.10;52.40
51801;DHT22;37855;53.204;6.568;2023-07-02T10:44:50;19.10;52.70
51801;DHT22;37855;53.204;6.568;2023-07-02T10:47:16;19.20;53.00
51801;DHT22;37855;53.204;6.568;2023-07-02T10:49:42;19.50;53.00
51801;DHT22;37855;53.204;6.568;2023-07-02T10:52:07;19.50;51.10
51801;DHT22;37855;53.204;6.568;2023-07-02T10:54:44;19.40;51.50
51801;DHT22;37855;53.204;6.568;2023-07-02T10:57:12;19.40;52.50
51801;DHT22;37855;53.204;6.568;2023-07-02T10:59:38;19.50;52.60
51801;DHT22;37855;53.204;6.568;2023-07-02T11:02:04;19.60;52.40
51801;DHT22;37855;53.204;6.568;2023-07-02T11:04:32;19.60;51.80
51801;DHT22;37855;53.204;6.568;2023-07-02T11:06:59;19.40;51.80
51801;DHT22;37855;53.204;6.568;2023-07-02T11:09:25;19.30;52.10
51801;DHT22;37855;53.204;6.568;2023-07-02T11:11:58;19.10;52.40
51801;DHT22;37855;53.204;6.568;2023-07-02T11:14:32;19.10;52.70
51801;DHT22;37855;53.204;6.568;2023-07-02T11:17:02;19.10;52.70
51801;DHT22;37855;53.204;6.568;2023-07-02T11:19:29;19.20;52.70
51801;DHT22;37855;53.204;6.568;2023-07-02T11:21:57;19.20;52.50
51801;DHT22;37855;53.204;6.568;2023-07-02T11:24:36;19.10;52.40
51801;DHT22;37855;53.204;6.568;2023-07-02T11:27:03;18.90;52.80
51801;DHT22;37855;53.204;6.568;2023-07-02T11:29:31;19.00;53.00
51801;DHT22;37855;53.204;6.568;2023-07-02T11:32:11;19.00;52.90
51801;DHT22;37855;53.204;6.568;2023-07-02T11:34:37;19.20;53.10
51801;DHT22;37855;53.204;6.568;2023-07-02T11:37:05;19.20;53.20
51801;DHT22;37855;53.204;6.568;2023-07-02T11:39:31;19.20;53.50
51801;DHT22;37855;53.204;6.568;2023-07-02T11:41:57;19.30;53.10
51801;DHT22;37855;53.204;6.568;2023-07-02T11:44:23;19.50;52.80
51801;DHT22;37855;53.204;6.568;2023-07-02T11:46:49;19.60;51.10
51801;DHT22;37855;53.204;6.568;2023-07-02T11:49:15;19.60;50.50
51801;DHT22;37855;53.204;6.568;2023-07-02T11:51:43;19.70;51.10
51801;DHT22;37855;53.204;6.568;2023-07-02T11:54:15;19.70;51.40
51801;DHT22;37855;53.204;6.568;2023-07-02T11:56:41;19.50;51.90
51801;DHT22;37855;53.204;6.568;2023-07-02T11:59:09;19.40;52.10
51801;DHT22;37855;53.204;6.568;2023-07-02T12:01:35;19.20;51.90
51801;DHT22;37855;53.204;6.568;2023-07-02T12:04:01;19.10;52.50
51801;DHT22;37855;53.204;6.568;2023-07-02T12:06:27;19.20;52.70
51801;DHT22;37855;53.204;6.568;2023-07-02T12:08:52;19.10;52.20
51801;DHT22;37855;53.204;6.568;2023-07-02T12:11:21;19.00;52.20
51801;DHT22;37855;53.204;6.568;2023-07-02T12:13:47;19.00;51.90
51801;DHT22;37855;53.204;6.568;2023-07-02T12:16:13;19.10;51.60
51801;DHT22;37855;53.204;6.568;2023-07-02T12:18:39;19.30;50.90
51801;DHT22;37855;53.204;6.568;2023-07-02T12:21:05;19.40;50.00
51801;DHT22;37855;53.204;6.568;2023-07-02T12:23:30;19.40;50.20
51801;DHT22;37855;53.204;6.568;2023-07-02T12:25:56;19.50;50.70
51801;DHT22;37855;53.204;6.568;2023-07-02T12:28:22;19.60;51.20
51801;DHT22;37855;53.204;6.568;2023-07-02T12:30:47;19.50;51.40
51801;DHT22;37855;53.204;6.568;2023-07-02T12:33:13;19.40;51.70
51801;DHT22;37855;53.204;6.568;2023-07-02T12:35:39;19.40;51.40
51801;DHT22;37855;53.204;6.568;2023-07-02T12:38:04;19.50;51.20
51801;DHT22;37855;53.204;6.568;2023-07-02T12:40:32;19.60;51.10
51801;DHT22;37855;53.204;6.568;2023-07-02T12:42:58;19.50;50.60
51801;DHT22;37855;53.204;6.568;2023-07-02T12:45:24;19.40;50.50
51801;DHT22;37855;53.204;6.568;2023-07-02T12:47:49;19.30;50.60
51801;DHT22;37855;53.204;6.568;2023-07-02T12:50:15;19.30;50.40
51801;DHT22;37855;53.204;6.568;2023-07-02T12:52:41;19.20;50.90
51801;DHT22;37855;53.204;6.568;2023-07-02T12:55:08;19.20;51.10
51801;DHT22;37855;53.204;6.568;2023-07-02T12:57:34;19.30;51.90
51801;DHT22;37855;53.204;6.568;2023-07-02T13:00:00;19.30;52.20
51801;DHT22;37855;53.204;6.568;2023-07-02T13:02:26;19.30;52.50
51801;DHT22;37855;53.204;6.568;2023-07-02T13:04:52;19.30;53.00
51801;DHT22;37855;53.204;6.568;2023-07-02T13:07:17;19.30;52.90
51801;DHT22;37855;53.204;6.568;2023-07-02T13:09:46;19.10;52.30
51801;DHT22;37855;53.204;6.568;2023-07-02T13:12:12;19.20;52.50
51801;DHT22;37855;53.204;6.568;2023-07-02T13:14:37;19.30;52.60
51801;DHT22;37855;53.204;6.568;2023-07-02T13:17:03;19.30;52.40
51801;DHT22;37855;53.204;6.568;2023-07-02T13:19:31;19.30;51.80
51801;DHT22;37855;53.204;6.568;2023-07-02T13:21:57;19.20;51.50
51801;DHT22;37855;53.204;6.568;2023-07-02T13:24:23;19.20;51.80
51801;DHT22;37855;53.204;6.568;2023-07-02T13:26:49;19.30;51.50
51801;DHT22;37855;53.204;6.568;2023-07-02T13:29:15;19.50;50.50
51801;DHT22;37855;53.204;6.568;2023-07-02T13:31:42;19.60;50.50
51801;DHT22;37855;53.204;6.568;2023-07-02T13:34:07;19.70;50.90
51801;DHT22;37855;53.204;6.568;2023-07-02T13:36:33;19.70;51.30
51801;DHT22;37855;53.204;6.568;2023-07-02T13:38:59;19.60;51.70
51801;DHT22;37855;53.204;6.568;2023-07-02T13:41:24;19.40;51.30
51801;DHT22;37855;53.204;6.568;2023-07-02T13:43:50;19.30;51.30
51801;DHT22;37855;53.204;6.568;2023-07-02T13:46:16;19.30;51.70
51801;DHT22;37855;53.204;6.568;2023-07-02T13:48:42;19.30;51.90
51801;DHT22;37855;53.204;6.568;2023-07-02T13:51:08;19.30;52.00
51801;DHT22;37855;53.204;6.568;2023-07-02T13:53:34;19.20;52.50
51801;DHT22;37855;53.204;6.568;2023-07-02T13:56:00;19.20;52.70
51801;DHT22;37855;53.204;6.568;2023-07-02T13:58:26;19.10;52.50
51801;DHT22;37855;53.204;6.568;2023-07-02T14:00:51;19.10;52.10
51801;DHT22;37855;53.204;6.568;2023-07-02T14:03:17;19.00;52.30
51801;DHT22;37855;53.204;6.568;2023-07-02T14:05:43;19.00;52.70
51801;DHT22;37855;53.204;6.568;2023-07-02T14:08:09;19.10;53.20
51801;DHT22;37855;53.204;6.568;2023-07-02T14:10:34;19.10;53.00
51801;DHT22;37855;53.204;6.568;2023-07-02T14:13:00;19.00;52.50
51801;DHT22;37855;53.204;6.568;2023-07-02T14:15:26;19.00;52.40
51801;DHT22;37855;53.204;6.568;2023-07-02T14:17:53;18.90;52.70
51801;DHT22;37855;53.204;6.568;2023-07-02T14:20:19;18.80;53.20
51801;DHT22;37855;53.204;6.568;2023-07-02T14:22:45;18.70;53.40
51801;DHT22;37855;53.204;6.568;2023-07-02T14:25:10;18.70;53.50
51801;DHT22;37855;53.204;6.568;2023-07-02T14:27:36;18.60;54.60
51801;DHT22;37855;53.204;6.568;2023-07-02T14:30:02;18.50;55.30
51801;DHT22;37855;53.204;6.568;2023-07-02T14:32:33;18.50;55.60
51801;DHT22;37855;53.204;6.568;2023-07-02T14:35:01;18.40;55.70
51801;DHT22;37855;53.204;6.568;2023-07-02T14:37:27;18.30;55.40
51801;DHT22;37855;53.204;6.568;2023-07-02T14:39:52;18.30;55.80
51801;DHT22;37855;53.204;6.568;2023-07-02T14:42:18;18.20;56.00
51801;DHT22;37855;53.204;6.568;2023-07-02T14:44:44;18.20;55.90
51801;DHT22;37855;53.204;6.568;2023-07-02T14:47:09;18.20;55.90
51801;DHT22;37855;53.204;6.568;2023-07-02T14:49:35;18.20;55.80
51801;DHT22;37855;53.204;6.568;2023-07-02T14:52:02;18.40;55.20
51801;DHT22;37855;53.204;6.568;2023-07-02T14:54:27;18.50;55.00
51801;DHT22;37855;53.204;6.568;2023-07-02T14:56:53;18.50;54.70
51801;DHT22;37855;53.204;6.568;2023-07-02T14:59:19;18.50;54.50
51801;DHT22;37855;53.204;6.568;2023-07-02T15:01:44;18.60;54.50
51801;DHT22;37855;53.204;6.568;2023-07-02T15:04:10;18.60;54.20
51801;DHT22;37855;53.204;6.568;2023-07-02T15:06:36;18.60;54.40
51801;DHT22;37855;53.204;6.568;2023-07-02T15:09:01;18.60;54.30
51801;DHT22;37855;53.204;6.568;2023-07-02T15:11:27;18.60;54.70
51801;DHT22;37855;53.204;6.568;2023-07-02T15:13:53;18.60;54.50
51801;DHT22;37855;53.204;6.568;2023-07-02T15:16:19;18.70;54.20
51801;DHT22;37855;53.204;6.568;2023-07-02T15:18:46;18.90;53.40
51801;DHT22;37855;53.204;6.568;2023-07-02T15:21:11;18.90;50.80
51801;DHT22;37855;53.204;6.568;2023-07-02T15:23:38;18.80;50.60
51801;DHT22;37855;53.204;6.568;2023-07-02T15:26:05;18.80;49.80
51801;DHT22;37855;53.204;6.568;2023-07-02T15:28:31;18.80;49.80
51801;DHT22;37855;53.204;6.568;2023-07-02T15:31:03;18.70;50.10
51801;DHT22;37855;53.204;6.568;2023-07-02T15:33:29;18.70;50.40